Time;durP1;ratioP1;P1;durP2;ratioP2;P2;SDS_P1;SDS_P2;PMS_P1;PMS_P2;Temp;Humidity;BMP_temperature;BMP_pressure;BME280_temperature;BME280_humidity;BME280_pressure;Samples;Min_cycle;Max_cycle;Signal;HPM_P1;HPM_P2
2023/06/14 00:02:03;;;;;;;;;;;14.80;99.90;;;;;;4926825;29;19915;-72
2023/06/14 00:04:30;;;;;;;;;;;14.70;99.90;;;;;;4923655;28;19993;-71
2023/06/14 00:06:57;;;;;;;;;;;14.70;99.90;;;;;;4929740;29;20521;-71
2023/06/14 00:09:25;;;;;;;;;;;14.70;99.90;;;;;;4933077;29;19919;-71
2023/06/14 00:11:52;;;;;;;;;;;14.70;99.90;;;;;;4926562;29;19911;-72
2023/06/14 00:14:18;;;;;;;;;;;14.60;99.90;;;;;;4930049;28;19915;-71
2023/06/14 00:16:44;;;;;;;;;;;14.60;99.90;;;;;;4911763;29;20448;-71
2023/06/14 00:31:22;;;;;;;;;;;14.30;99.90;;;;;;4936233;29;20008;-71
2023/06/14 00:33:49;;;;;;;;;;;14.30;99.90;;;;;;4934009;29;19993;-71
2023/06/14 00:36:14;;;;;;;;;;;14.30;99.90;;;;;;4932397;29;19911;-71
2023/06/14 00:38:40;;;;;;;;;;;14.30;99.90;;;;;;4907609;29;20308;-71
2023/06/14 00:41:07;;;;;;;;;;;14.30;99.90;;;;;;4926654;29;19918;-72
2023/06/14 00:43:34;;;;;;;;;;;14.30;99.90;;;;;;4933961;28;19919;-71
2023/06/14 00:46:00;;;;;;;;;;;14.20;99.90;;;;;;4933921;28;20239;-71
2023/06/14 00:48:28;;;;;;;;;;;14.20;99.90;;;;;;4933475;29;20294;-72
2023/06/14 00:50:54;;;;;;;;;;;14.30;99.90;;;;;;4933113;29;19918;-72
2023/06/14 00:53:20;;;;;;;;;;;14.30;99.90;;;;;;4921208;29;19969;-71
2023/06/14 00:55:46;;;;;;;;;;;14.30;99.90;;;;;;4927732;29;19915;-72
2023/06/14 00:58:13;;;;;;;;;;;14.30;99.90;;;;;;4931716;29;20372;-71
2023/06/14 01:00:40;;;;;;;;;;;14.20;99.90;;;;;;4932077;29;19921;-71
2023/06/14 01:03:07;;;;;;;;;;;14.10;99.90;;;;;;4930572;29;19966;-71
2023/06/14 01:05:34;;;;;;;;;;;14.10;99.90;;;;;;4924447;29;19918;-72
2023/06/14 01:08:14;;;;;;;;;;;14.10;99.90;;;;;;4930873;29;19915;-72
2023/06/14 01:10:53;;;;;;;;;;;14.10;99.90;;;;;;4921806;29;19911;-71
2023/06/14 01:13:27;;;;;;;;;;;14.10;99.90;;;;;;4926651;29;20033;-71
2023/06/14 01:15:54;;;;;;;;;;;14.10;99.90;;;;;;4933564;29;20348;-71
2023/06/14 01:18:21;;;;;;;;;;;14.10;99.90;;;;;;4929471;29;19914;-71
2023/06/14 01:20:50;;;;;;;;;;;14.10;99.90;;;;;;4928520;29;19963;-71
2023/06/14 01:23:16;;;;;;;;;;;14.10;99.90;;;;;;4906575;29;19946;-71
2023/06/14 01:25:44;;;;;;;;;;;14.20;99.90;;;;;;4926520;29;19917;-72
2023/06/14 01:28:11;;;;;;;;;;;14.20;99.90;;;;;;4926614;29;20293;-71
2023/06/14 01:30:42;;;;;;;;;;;14.20;99.90;;;;;;4931055;29;20419;-71
2023/06/14 01:33:08;;;;;;;;;;;14.20;99.90;;;;;;4925178;29;19914;-71
2023/06/14 01:35:35;;;;;;;;;;;14.20;99.90;;;;;;4929898;29;20360;-71
2023/06/14 01:38:01;;;;;;;;;;;14.20;99.90;;;;;;4932494;29;19963;-71
2023/06/14 01:40:30;;;;;;;;;;;14.20;99.90;;;;;;4914208;29;19985;-71
2023/06/14 01:42:56;;;;;;;;;;;14.20;99.90;;;;;;4932113;29;19919;-71
2023/06/14 01:45:23;;;;;;;;;;;14.20;99.90;;;;;;4925146;29;19991;-71
2023/06/14 01:47:50;;;;;;;;;;;14.30;99.90;;;;;;4927333;29;19914;-71
2023/06/14 01:50:18;;;;;;;;;;;14.20;99.90;;;;;;4930839;29;19929;-71
2023/06/14 01:52:44;;;;;;;;;;;14.20;99.90;;;;;;4925860;29;19933;-71
2023/06/14 01:55:10;;;;;;;;;;;14.20;99.90;;;;;;4926012;29;19915;-71
2023/06/14 01:57:36;;;;;;;;;;;14.20;99.90;;;;;;4929719;29;19945;-71
2023/06/14 02:00:03;;;;;;;;;;;14.20;99.90;;;;;;4932886;29;19918;-71
2023/06/14 02:02:30;;;;;;;;;;;14.20;99.90;;;;;;4931155;29;19918;-71
2023/06/14 02:04:57;;;;;;;;;;;14.30;99.90;;;;;;4933967;28;19914;-71
2023/06/14 02:07:24;;;;;;;;;;;14.20;99.90;;;;;;4935225;28;20002;-71
2023/06/14 02:09:49;;;;;;;;;;;14.20;99.90;;;;;;4934444;28;20770;-71
2023/06/14 02:12:17;;;;;;;;;;;14.20;99.90;;;;;;4934995;29;20788;-71
2023/06/14 02:14:44;;;;;;;;;;;14.20;99.90;;;;;;4911189;29;19962;-71
2023/06/14 02:17:11;;;;;;;;;;;14.30;99.90;;;;;;4935795;29;20394;-71
2023/06/14 02:19:38;;;;;;;;;;;14.30;99.90;;;;;;4936246;28;19910;-70
2023/06/14 02:22:05;;;;;;;;;;;14.30;99.90;;;;;;4927557;29;19966;-71
2023/06/14 02:24:30;;;;;;;;;;;14.30;99.90;;;;;;4933544;29;19915;-71
2023/06/14 02:26:57;;;;;;;;;;;14.30;99.90;;;;;;4911557;29;19926;-71
2023/06/14 02:29:23;;;;;;;;;;;14.20;99.90;;;;;;4930948;29;20041;-71
2023/06/14 02:31:51;;;;;;;;;;;14.20;99.90;;;;;;4936659;29;19918;-71
2023/06/14 02:34:17;;;;;;;;;;;14.10;99.90;;;;;;4924354;29;19949;-71
2023/06/14 02:36:45;;;;;;;;;;;14.10;99.90;;;;;;4930883;29;19914;-71
2023/06/14 02:39:11;;;;;;;;;;;14.00;99.90;;;;;;4931164;29;19911;-72
2023/06/14 02:41:38;;;;;;;;;;;14.00;99.90;;;;;;4933337;29;19914;-71
2023/06/14 02:44:04;;;;;;;;;;;14.10;99.90;;;;;;4928333;28;19919;-71
2023/06/14 02:46:30;;;;;;;;;;;14.00;99.90;;;;;;4938759;29;19918;-71
2023/06/14 02:48:57;;;;;;;;;;;13.90;99.90;;;;;;4928624;29;20035;-71
2023/06/14 02:51:24;;;;;;;;;;;13.90;99.90;;;;;;4929943;29;19977;-71
2023/06/14 02:53:51;;;;;;;;;;;13.90;99.90;;;;;;4928915;29;19926;-71
2023/06/14 02:56:17;;;;;;;;;;;13.90;99.90;;;;;;4930950;28;20005;-71
2023/06/14 02:58:43;;;;;;;;;;;13.90;99.90;;;;;;4907969;29;20021;-72
2023/06/14 03:01:12;;;;;;;;;;;14.00;99.90;;;;;;4933833;29;19911;-71
2023/06/14 03:03:40;;;;;;;;;;;14.00;99.90;;;;;;4931807;29;19922;-71
2023/06/14 03:06:09;;;;;;;;;;;14.00;99.90;;;;;;4933121;29;19933;-71
2023/06/14 03:08:40;;;;;;;;;;;14.00;99.90;;;;;;4933328;28;19965;-71
2023/06/14 03:11:07;;;;;;;;;;;14.00;99.90;;;;;;4950424;28;20075;-71
2023/06/14 03:13:35;;;;;;;;;;;14.00;99.90;;;;;;4938896;29;20029;-71
2023/06/14 03:16:03;;;;;;;;;;;14.00;99.90;;;;;;4934165;29;21410;-71
2023/06/14 03:18:30;;;;;;;;;;;14.00;99.90;;;;;;4932395;29;20005;-71
2023/06/14 03:20:56;;;;;;;;;;;14.00;99.90;;;;;;4929992;28;20839;-72
2023/06/14 03:23:26;;;;;;;;;;;14.00;99.90;;;;;;4935328;29;19948;-72
2023/06/14 03:25:53;;;;;;;;;;;14.00;99.90;;;;;;4929813;29;19954;-71
2023/06/14 03:28:18;;;;;;;;;;;14.00;99.90;;;;;;4929667;29;19911;-71
2023/06/14 03:30:45;;;;;;;;;;;14.00;99.90;;;;;;4936891;29;20280;-71
2023/06/14 03:33:12;;;;;;;;;;;14.00;99.90;;;;;;4937277;29;19947;-71
2023/06/14 03:35:38;;;;;;;;;;;14.10;99.90;;;;;;4930821;29;19910;-71
2023/06/14 03:38:05;;;;;;;;;;;14.10;99.90;;;;;;4936997;29;19914;-71
2023/06/14 03:40:31;;;;;;;;;;;14.10;99.90;;;;;;4936019;29;20368;-71
2023/06/14 03:42:56;;;;;;;;;;;14.10;99.90;;;;;;4930660;29;19922;-71
2023/06/14 03:45:22;;;;;;;;;;;14.10;99.90;;;;;;4933668;28;20336;-71
2023/06/14 03:47:47;;;;;;;;;;;14.10;99.90;;;;;;4946657;28;19911;-72
2023/06/14 03:50:15;;;;;;;;;;;14.20;99.90;;;;;;4934231;28;19914;-71
2023/06/14 03:52:42;;;;;;;;;;;14.30;99.90;;;;;;4936702;29;20045;-71
2023/06/14 03:55:08;;;;;;;;;;;14.30;99.90;;;;;;4926577;29;20357;-72
2023/06/14 03:57:35;;;;;;;;;;;14.40;99.90;;;;;;4935523;29;19910;-71
2023/06/14 04:00:00;;;;;;;;;;;14.40;99.90;;;;;;4929775;29;19941;-71
2023/06/14 04:02:28;;;;;;;;;;;14.40;99.90;;;;;;4930142;29;20373;-71
2023/06/14 04:04:56;;;;;;;;;;;14.40;99.90;;;;;;4932726;28;19925;-71
2023/06/14 04:07:23;;;;;;;;;;;14.40;99.90;;;;;;4930577;29;19918;-71
2023/06/14 04:09:50;;;;;;;;;;;14.50;99.90;;;;;;4930294;29;19997;-72
2023/06/14 04:12:15;;;;;;;;;;;14.50;99.90;;;;;;4928832;29;19950;-71
2023/06/14 04:14:42;;;;;;;;;;;14.60;99.90;;;;;;4929638;29;20024;-71
2023/06/14 04:17:08;;;;;;;;;;;14.60;99.90;;;;;;4931507;29;20038;-71
2023/06/14 04:19:34;;;;;;;;;;;14.60;99.90;;;;;;4930928;29;20018;-71
2023/06/14 04:22:01;;;;;;;;;;;14.60;99.90;;;;;;4930616;29;19926;-71
2023/06/14 04:24:31;;;;;;;;;;;14.80;99.90;;;;;;4925533;29;19915;-71
2023/06/14 04:26:58;;;;;;;;;;;14.90;99.90;;;;;;4930391;29;20583;-72
2023/06/14 04:29:26;;;;;;;;;;;15.00;99.90;;;;;;4935492;29;19926;-71
2023/06/14 04:31:54;;;;;;;;;;;15.20;99.90;;;;;;4931722;29;20749;-72
2023/06/14 04:34:21;;;;;;;;;;;15.30;99.90;;;;;;4929602;29;19922;-72
2023/06/14 04:36:53;;;;;;;;;;;15.60;99.90;;;;;;4934584;29;20397;-71
2023/06/14 04:39:18;;;;;;;;;;;15.70;99.90;;;;;;4907859;29;20379;-71
2023/06/14 04:41:46;;;;;;;;;;;15.90;99.90;;;;;;4932887;29;19910;-72
2023/06/14 04:44:12;;;;;;;;;;;16.10;99.90;;;;;;4932041;28;19964;-72
2023/06/14 04:46:47;;;;;;;;;;;16.30;99.90;;;;;;4922197;29;20021;-72
2023/06/14 04:49:15;;;;;;;;;;;16.40;99.90;;;;;;4932090;29;20308;-71
2023/06/14 04:51:42;;;;;;;;;;;16.40;99.90;;;;;;4925223;29;20371;-71
2023/06/14 04:54:10;;;;;;;;;;;16.40;99.90;;;;;;4925008;29;19923;-71
2023/06/14 04:56:37;;;;;;;;;;;16.50;99.90;;;;;;4924995;29;19918;-73
2023/06/14 04:59:04;;;;;;;;;;;16.40;99.90;;;;;;4931135;29;21053;-71
2023/06/14 05:01:31;;;;;;;;;;;16.20;99.90;;;;;;4930252;28;19911;-72
2023/06/14 05:03:57;;;;;;;;;;;16.30;99.90;;;;;;4923395;29;19925;-72
2023/06/14 05:06:23;;;;;;;;;;;16.60;99.90;;;;;;4930578;29;19915;-71
2023/06/14 05:08:49;;;;;;;;;;;16.90;99.90;;;;;;4929212;28;19910;-71
2023/06/14 05:11:19;;;;;;;;;;;16.60;99.90;;;;;;4930987;29;19914;-71
2023/06/14 05:13:45;;;;;;;;;;;16.60;99.90;;;;;;4932219;29;20403;-71
2023/06/14 05:16:11;;;;;;;;;;;16.70;99.90;;;;;;4908425;29;19910;-71
2023/06/14 05:18:37;;;;;;;;;;;17.20;99.90;;;;;;4932987;29;19923;-71
2023/06/14 05:21:04;;;;;;;;;;;17.20;99.90;;;;;;4923981;29;19919;-71
2023/06/14 05:23:30;;;;;;;;;;;17.00;99.90;;;;;;4927289;29;19951;-71
2023/06/14 05:25:56;;;;;;;;;;;16.70;99.90;;;;;;4929585;29;19989;-71
2023/06/14 05:28:22;;;;;;;;;;;16.70;99.90;;;;;;4908793;29;19989;-71
2023/06/14 05:30:49;;;;;;;;;;;16.90;99.90;;;;;;4931451;28;20005;-71
2023/06/14 05:33:16;;;;;;;;;;;17.20;99.90;;;;;;4937166;29;19915;-71
2023/06/14 05:35:47;;;;;;;;;;;17.20;99.90;;;;;;4940025;29;19914;-79
2023/06/14 05:38:12;;;;;;;;;;;17.40;99.90;;;;;;4947662;29;19934;-80
2023/06/14 05:40:41;;;;;;;;;;;17.50;99.90;;;;;;4951291;29;20376;-80
2023/06/14 05:46:24;;;;;;;;;;;18.00;99.90;;;;;;4952136;28;19938;-80
2023/06/14 05:48:57;;;;;;;;;;;18.10;99.90;;;;;;4968110;28;19915;-80
2023/06/14 05:54:25;;;;;;;;;;;18.50;99.90;;;;;;4953735;29;20006;-80
2023/06/14 05:57:01;;;;;;;;;;;19.80;98.00;;;;;;4960261;29;19922;-80
2023/06/14 05:59:34;;;;;;;;;;;20.50;96.90;;;;;;4954278;29;19915;-80
2023/06/14 06:02:05;;;;;;;;;;;19.90;96.50;;;;;;4952128;29;19911;-80
2023/06/14 06:04:33;;;;;;;;;;;20.30;96.80;;;;;;4953765;29;19911;-80
2023/06/14 06:07:02;;;;;;;;;;;20.40;96.30;;;;;;4941423;29;19925;-80
2023/06/14 06:09:41;;;;;;;;;;;20.30;95.90;;;;;;4938418;29;19919;-79
2023/06/14 06:12:08;;;;;;;;;;;19.90;96.10;;;;;;4943485;29;19915;-80
2023/06/14 06:14:36;;;;;;;;;;;19.80;96.90;;;;;;4945774;29;19966;-79
2023/06/14 06:17:06;;;;;;;;;;;19.90;97.50;;;;;;4947072;29;19919;-80
2023/06/14 06:22:35;;;;;;;;;;;20.50;96.10;;;;;;4945433;29;20395;-80
2023/06/14 06:25:02;;;;;;;;;;;21.40;94.80;;;;;;4932244;29;19948;-79
2023/06/14 06:27:37;;;;;;;;;;;21.30;94.40;;;;;;4932142;29;19911;-79
2023/06/14 06:30:03;;;;;;;;;;;21.10;93.80;;;;;;4933018;29;20266;-79
2023/06/14 06:32:30;;;;;;;;;;;22.00;93.60;;;;;;4933596;29;19923;-79
2023/06/14 06:35:00;;;;;;;;;;;22.40;91.10;;;;;;4918453;29;19954;-79
2023/06/14 06:37:25;;;;;;;;;;;22.20;91.50;;;;;;4937248;29;19919;-79
2023/06/14 06:39:55;;;;;;;;;;;22.70;91.40;;;;;;4930978;29;19917;-79
2023/06/14 06:42:20;;;;;;;;;;;22.60;91.90;;;;;;4926125;29;19911;-79
2023/06/14 06:44:56;;;;;;;;;;;22.00;91.10;;;;;;4931152;29;20371;-79
2023/06/14 06:47:33;;;;;;;;;;;22.90;90.70;;;;;;4926513;29;19914;-78
2023/06/14 06:50:01;;;;;;;;;;;23.00;90.10;;;;;;4923019;29;19911;-78
2023/06/14 06:52:27;;;;;;;;;;;23.60;88.00;;;;;;4910761;29;19919;-79
2023/06/14 06:54:55;;;;;;;;;;;23.90;85.40;;;;;;4936887;29;20536;-79
2023/06/14 06:57:30;;;;;;;;;;;24.80;83.20;;;;;;4933249;29;19961;-78
2023/06/14 06:59:58;;;;;;;;;;;24.40;82.10;;;;;;4928315;29;19930;-84
2023/06/14 07:02:24;;;;;;;;;;;25.90;80.50;;;;;;4924593;29;19922;-84
2023/06/14 07:04:51;;;;;;;;;;;27.10;74.60;;;;;;4932868;29;19911;-83
2023/06/14 07:07:23;;;;;;;;;;;26.80;74.10;;;;;;4912619;29;19985;-81
2023/06/14 07:09:52;;;;;;;;;;;26.20;74.10;;;;;;4926205;29;19911;-81
2023/06/14 07:12:25;;;;;;;;;;;25.40;74.70;;;;;;4933253;29;19917;-81
2023/06/14 07:14:51;;;;;;;;;;;24.80;74.90;;;;;;4931076;29;19926;-81
2023/06/14 07:17:19;;;;;;;;;;;25.00;75.10;;;;;;4928323;29;19910;-82
2023/06/14 07:19:44;;;;;;;;;;;25.50;75.40;;;;;;4930042;29;20565;-84
2023/06/14 07:22:17;;;;;;;;;;;26.50;72.20;;;;;;4927937;29;19911;-82
2023/06/14 07:24:43;;;;;;;;;;;27.20;69.10;;;;;;4933385;29;19911;-84
2023/06/14 07:27:13;;;;;;;;;;;28.10;69.50;;;;;;4934788;29;20272;-82
2023/06/14 07:29:43;;;;;;;;;;;28.30;66.60;;;;;;4921578;29;19911;-81
2023/06/14 07:32:10;;;;;;;;;;;28.10;66.00;;;;;;4934570;28;19911;-82
2023/06/14 07:34:40;;;;;;;;;;;28.10;67.80;;;;;;4914493;29;19929;-82
2023/06/14 07:37:07;;;;;;;;;;;29.00;65.00;;;;;;4930152;29;20661;-82
2023/06/14 07:39:37;;;;;;;;;;;28.90;63.90;;;;;;4930625;29;19922;-84
2023/06/14 07:42:08;;;;;;;;;;;29.90;64.00;;;;;;4925038;29;20096;-86
2023/06/14 07:44:40;;;;;;;;;;;30.00;62.40;;;;;;4931977;29;19911;-86
2023/06/14 07:47:11;;;;;;;;;;;30.40;62.40;;;;;;4928505;29;19910;-86
2023/06/14 07:49:41;;;;;;;;;;;31.00;60.90;;;;;;4924981;29;19914;-83
2023/06/14 07:52:07;;;;;;;;;;;32.80;58.20;;;;;;4923902;29;19915;-82
2023/06/14 07:54:41;;;;;;;;;;;32.70;57.90;;;;;;4932561;28;19931;-87
2023/06/14 07:57:16;;;;;;;;;;;31.90;55.90;;;;;;4928404;29;20013;-87
2023/06/14 07:59:43;;;;;;;;;;;30.00;58.00;;;;;;4946798;28;19911;-86
2023/06/14 08:02:21;;;;;;;;;;;29.00;58.60;;;;;;4924144;29;19993;-88
2023/06/14 08:04:57;;;;;;;;;;;29.00;58.40;;;;;;4931255;29;19914;-83
2023/06/14 08:07:22;;;;;;;;;;;30.70;56.90;;;;;;4933126;29;19914;-81
2023/06/14 08:09:48;;;;;;;;;;;28.90;58.10;;;;;;4912869;29;19917;-82
2023/06/14 08:12:26;;;;;;;;;;;27.40;59.80;;;;;;4930718;29;19937;-80
2023/06/14 08:14:53;;;;;;;;;;;26.90;60.60;;;;;;4930785;29;20018;-80
2023/06/14 08:17:28;;;;;;;;;;;25.90;62.70;;;;;;4929058;29;19977;-81
2023/06/14 08:19:57;;;;;;;;;;;26.00;63.40;;;;;;4935629;29;20372;-82
2023/06/14 08:22:33;;;;;;;;;;;28.20;60.90;;;;;;4927092;29;19914;-83
2023/06/14 08:25:02;;;;;;;;;;;29.00;59.10;;;;;;4924938;29;20648;-84
2023/06/14 08:27:58;;;;;;;;;;;29.00;59.20;;;;;;4932362;29;19919;-83
2023/06/14 08:30:24;;;;;;;;;;;28.80;59.50;;;;;;4922274;29;20250;-85
2023/06/14 08:32:56;;;;;;;;;;;29.20;58.70;;;;;;4925905;29;19941;-82
2023/06/14 08:35:27;;;;;;;;;;;29.00;57.80;;;;;;4940985;29;20372;-84
2023/06/14 08:37:57;;;;;;;;;;;28.70;59.10;;;;;;4906945;29;19914;-83
2023/06/14 08:40:30;;;;;;;;;;;31.40;58.70;;;;;;4911254;29;20037;-87
2023/06/14 08:42:56;;;;;;;;;;;31.00;54.90;;;;;;4928310;29;19977;-87
2023/06/14 08:45:24;;;;;;;;;;;30.80;55.30;;;;;;4929771;29;19918;-88
2023/06/14 08:47:57;;;;;;;;;;;31.30;55.60;;;;;;4921111;29;19965;-87
2023/06/14 08:50:30;;;;;;;;;;;32.00;55.10;;;;;;4928173;29;20341;-83
2023/06/14 08:53:02;;;;;;;;;;;33.70;54.80;;;;;;4919903;29;19922;-84
2023/06/14 08:55:30;;;;;;;;;;;33.30;52.50;;;;;;4926831;28;19933;-83
2023/06/14 08:58:24;;;;;;;;;;;33.50;51.60;;;;;;4922558;29;19911;-87
2023/06/14 09:00:52;;;;;;;;;;;33.10;50.60;;;;;;4923948;29;19910;-86
2023/06/14 09:03:20;;;;;;;;;;;33.90;52.00;;;;;;4911782;29;19989;-89
2023/06/14 09:05:47;;;;;;;;;;;31.20;52.30;;;;;;4911706;29;19911;-89
2023/06/14 09:08:22;;;;;;;;;;;30.90;52.90;;;;;;4923552;29;19974;-85
2023/06/14 09:10:58;;;;;;;;;;;31.10;53.60;;;;;;4926416;29;19911;-83
2023/06/14 09:13:27;;;;;;;;;;;32.30;52.20;;;;;;4924296;29;20021;-86
2023/06/14 09:15:54;;;;;;;;;;;30.80;52.90;;;;;;4943726;29;19923;-87
2023/06/14 09:21:25;;;;;;;;;;;30.00;55.00;;;;;;4938703;29;19954;-88
2023/06/14 09:23:53;;;;;;;;;;;28.90;56.00;;;;;;4927252;29;19990;-86
2023/06/14 09:26:23;;;;;;;;;;;31.00;54.70;;;;;;4923258;29;19911;-86
2023/06/14 09:28:50;;;;;;;;;;;30.10;54.60;;;;;;4921360;29;19918;-87
2023/06/14 09:31:16;;;;;;;;;;;29.70;55.50;;;;;;4923470;29;19911;-87
2023/06/14 09:33:49;;;;;;;;;;;30.10;54.40;;;;;;4923054;28;19922;-86
2023/06/14 09:36:17;;;;;;;;;;;29.80;54.40;;;;;;4924374;29;20337;-86
2023/06/14 09:38:58;;;;;;;;;;;30.50;52.90;;;;;;4928975;29;19934;-86
2023/06/14 09:41:34;;;;;;;;;;;30.10;54.60;;;;;;4927250;29;19923;-88
2023/06/14 09:44:02;;;;;;;;;;;30.10;53.50;;;;;;4927991;29;19911;-87
2023/06/14 09:46:38;;;;;;;;;;;29.50;54.10;;;;;;4922334;29;19934;-85
2023/06/14 09:49:04;;;;;;;;;;;28.30;55.50;;;;;;4937729;29;19940;-87
2023/06/14 09:51:30;;;;;;;;;;;29.20;56.40;;;;;;4907515;29;19914;-87
2023/06/14 09:54:00;;;;;;;;;;;30.80;54.40;;;;;;4929672;29;20026;-85
2023/06/14 09:56:46;;;;;;;;;;;30.40;53.00;;;;;;4922992;29;20622;-80
2023/06/14 09:59:13;;;;;;;;;;;26.60;56.00;;;;;;4931562;29;19919;-80
2023/06/14 10:01:41;;;;;;;;;;;24.80;59.60;;;;;;4924665;29;19918;-80
2023/06/14 10:04:09;;;;;;;;;;;24.40;62.00;;;;;;4943980;28;19914;-80
2023/06/14 10:06:45;;;;;;;;;;;25.10;59.80;;;;;;4927255;29;20376;-81
2023/06/14 10:09:15;;;;;;;;;;;25.30;59.70;;;;;;4930657;29;20233;-80
2023/06/14 10:11:43;;;;;;;;;;;24.90;60.30;;;;;;4918394;29;20658;-81
2023/06/14 10:14:18;;;;;;;;;;;25.50;59.10;;;;;;4926949;28;20414;-80
2023/06/14 10:17:04;;;;;;;;;;;26.10;58.30;;;;;;4922245;29;19969;-81
2023/06/14 10:19:37;;;;;;;;;;;26.90;58.10;;;;;;4929742;29;19915;-81
2023/06/14 10:22:02;;;;;;;;;;;27.90;56.90;;;;;;4932619;29;20051;-80
2023/06/14 10:24:33;;;;;;;;;;;26.80;57.30;;;;;;4930185;29;20097;-82
2023/06/14 10:27:02;;;;;;;;;;;27.50;57.10;;;;;;4930464;29;20005;-82
2023/06/14 10:29:33;;;;;;;;;;;29.50;55.80;;;;;;4926204;29;19919;-83
2023/06/14 10:31:59;;;;;;;;;;;29.40;54.60;;;;;;4931975;29;19994;-82
2023/06/14 10:34:30;;;;;;;;;;;28.70;55.80;;;;;;4927182;29;19923;-81
2023/06/14 10:37:10;;;;;;;;;;;27.40;56.70;;;;;;4925740;29;19911;-80
2023/06/14 10:39:41;;;;;;;;;;;25.10;58.30;;;;;;4926625;29;19910;-81
2023/06/14 10:42:07;;;;;;;;;;;24.40;60.90;;;;;;4924352;29;19922;-80
2023/06/14 10:44:40;;;;;;;;;;;23.90;61.00;;;;;;4924420;29;19918;-78
2023/06/14 10:47:24;;;;;;;;;;;23.00;64.00;;;;;;4929236;29;20453;-78
2023/06/14 10:50:19;;;;;;;;;;;22.80;64.00;;;;;;4926357;29;19917;-78
2023/06/14 10:52:52;;;;;;;;;;;22.70;64.70;;;;;;4925791;29;19911;-78
2023/06/14 10:55:18;;;;;;;;;;;22.70;64.90;;;;;;4929999;29;19934;-78
2023/06/14 10:57:46;;;;;;;;;;;22.30;64.60;;;;;;4925447;29;19974;-78
2023/06/14 11:00:26;;;;;;;;;;;22.40;63.80;;;;;;4932612;29;20635;-78
2023/06/14 11:02:56;;;;;;;;;;;22.30;65.20;;;;;;4928426;29;19957;-78
2023/06/14 11:05:30;;;;;;;;;;;22.50;64.70;;;;;;4926896;29;19915;-78
2023/06/14 11:08:12;;;;;;;;;;;23.00;64.70;;;;;;4927988;29;19995;-79
2023/06/14 11:10:42;;;;;;;;;;;23.70;63.80;;;;;;4933110;29;20469;-79
2023/06/14 11:13:08;;;;;;;;;;;24.80;62.20;;;;;;4914780;29;19914;-78
2023/06/14 11:15:38;;;;;;;;;;;25.50;60.30;;;;;;4933120;29;20379;-78
2023/06/14 11:18:05;;;;;;;;;;;24.20;62.40;;;;;;4930726;29;19918;-80
2023/06/14 11:20:35;;;;;;;;;;;23.90;63.40;;;;;;4930737;29;20476;-79
2023/06/14 11:23:05;;;;;;;;;;;24.40;62.90;;;;;;4928920;29;19950;-79
2023/06/14 11:25:33;;;;;;;;;;;24.40;63.30;;;;;;4931200;29;19923;-79
2023/06/14 11:28:00;;;;;;;;;;;24.20;63.10;;;;;;4932698;29;19965;-78
2023/06/14 11:30:32;;;;;;;;;;;24.10;62.20;;;;;;4936404;28;19919;-79
2023/06/14 11:33:01;;;;;;;;;;;24.10;62.30;;;;;;4914087;29;19919;-78
2023/06/14 11:35:28;;;;;;;;;;;24.00;62.10;;;;;;4936215;29;19918;-78
2023/06/14 11:37:57;;;;;;;;;;;23.80;62.20;;;;;;4939277;29;20280;-79
2023/06/14 11:40:29;;;;;;;;;;;23.50;62.80;;;;;;4911657;29;19926;-79
2023/06/14 11:43:00;;;;;;;;;;;23.80;63.80;;;;;;4932758;29;20045;-79
2023/06/14 11:45:30;;;;;;;;;;;23.50;62.70;;;;;;4926521;29;19953;-79
2023/06/14 11:47:58;;;;;;;;;;;23.30;63.60;;;;;;4929524;29;20024;-79
2023/06/14 11:50:27;;;;;;;;;;;23.20;64.50;;;;;;4932930;29;21028;-78
2023/06/14 11:53:06;;;;;;;;;;;23.20;64.20;;;;;;4925407;29;20520;-79
2023/06/14 11:55:35;;;;;;;;;;;23.20;64.30;;;;;;4925773;29;19990;-78
2023/06/14 11:58:04;;;;;;;;;;;23.50;62.80;;;;;;4941438;28;20610;-78
2023/06/14 12:00:48;;;;;;;;;;;23.40;63.30;;;;;;4952321;28;19914;-78
2023/06/14 12:03:16;;;;;;;;;;;23.80;63.50;;;;;;4927793;29;19910;-78
2023/06/14 12:05:46;;;;;;;;;;;24.00;63.10;;;;;;4930634;29;19946;-78
2023/06/14 12:08:21;;;;;;;;;;;24.20;61.00;;;;;;4937989;29;19942;-77
2023/06/14 12:10:52;;;;;;;;;;;24.60;62.40;;;;;;4929279;29;19918;-79
2023/06/14 12:13:21;;;;;;;;;;;24.20;61.40;;;;;;4924313;29;20018;-79
2023/06/14 12:15:54;;;;;;;;;;;23.70;62.00;;;;;;4935737;29;19914;-78
2023/06/14 12:18:20;;;;;;;;;;;23.90;63.20;;;;;;4927040;29;19945;-78
2023/06/14 12:20:52;;;;;;;;;;;23.90;61.70;;;;;;4937137;29;19910;-79
2023/06/14 12:23:49;;;;;;;;;;;24.00;62.40;;;;;;4930402;29;19914;-78
2023/06/14 12:26:20;;;;;;;;;;;23.90;62.50;;;;;;4908783;29;19911;-78
2023/06/14 12:29:00;;;;;;;;;;;23.40;63.30;;;;;;4930160;29;19911;-78
2023/06/14 12:31:36;;;;;;;;;;;23.40;63.30;;;;;;4928862;29;19926;-79
2023/06/14 12:34:02;;;;;;;;;;;23.20;63.60;;;;;;4932038;28;19923;-78
2023/06/14 12:36:32;;;;;;;;;;;23.20;62.90;;;;;;4936157;29;19918;-79
2023/06/14 12:38:59;;;;;;;;;;;23.50;63.20;;;;;;4913142;29;20779;-78
2023/06/14 12:41:27;;;;;;;;;;;23.20;63.20;;;;;;4930736;28;19918;-79
2023/06/14 12:43:57;;;;;;;;;;;23.00;64.00;;;;;;4936982;28;20030;-78
2023/06/14 12:46:25;;;;;;;;;;;22.70;63.20;;;;;;4929017;29;20561;-78
2023/06/14 12:48:52;;;;;;;;;;;22.90;63.90;;;;;;4911240;29;19910;-78
2023/06/14 12:51:25;;;;;;;;;;;23.20;64.70;;;;;;4930623;29;19915;-82
2023/06/14 12:53:52;;;;;;;;;;;23.50;64.30;;;;;;4930851;29;19938;-82
2023/06/14 12:56:17;;;;;;;;;;;24.20;62.10;;;;;;4932640;28;19923;-81
2023/06/14 12:58:43;;;;;;;;;;;24.20;62.50;;;;;;4914921;29;20411;-81
2023/06/14 13:01:09;;;;;;;;;;;24.30;62.80;;;;;;4929854;29;19998;-81
2023/06/14 13:03:42;;;;;;;;;;;24.60;63.30;;;;;;4931058;29;20343;-80
2023/06/14 13:06:15;;;;;;;;;;;24.70;61.60;;;;;;4931254;29;19925;-79
2023/06/14 13:08:46;;;;;;;;;;;24.80;61.30;;;;;;4927529;29;20024;-78
2023/06/14 13:11:17;;;;;;;;;;;24.90;61.60;;;;;;4929349;29;19985;-78
2023/06/14 13:13:43;;;;;;;;;;;24.70;61.20;;;;;;4919261;29;19915;-79
2023/06/14 13:16:16;;;;;;;;;;;24.40;62.10;;;;;;4930561;29;19910;-80
2023/06/14 13:18:48;;;;;;;;;;;24.00;61.30;;;;;;4921301;29;20122;-78
2023/06/14 13:21:14;;;;;;;;;;;23.90;63.20;;;;;;4929089;29;19917;-79
2023/06/14 13:23:53;;;;;;;;;;;24.00;62.60;;;;;;4929162;29;19914;-78
2023/06/14 13:26:24;;;;;;;;;;;23.90;61.60;;;;;;4917660;29;19911;-79
2023/06/14 13:28:52;;;;;;;;;;;23.80;62.00;;;;;;4926062;29;20033;-78
2023/06/14 13:31:17;;;;;;;;;;;24.30;63.10;;;;;;4911030;29;19922;-79
2023/06/14 13:33:44;;;;;;;;;;;24.10;62.20;;;;;;4932866;29;19915;-79
2023/06/14 13:36:13;;;;;;;;;;;24.30;62.70;;;;;;4915754;29;20058;-78
2023/06/14 13:38:41;;;;;;;;;;;24.50;62.80;;;;;;4925873;29;19957;-79
2023/06/14 13:41:07;;;;;;;;;;;24.50;62.40;;;;;;4938768;29;19918;-79
2023/06/14 13:43:37;;;;;;;;;;;24.20;62.50;;;;;;4924479;29;20158;-77
2023/06/14 13:46:05;;;;;;;;;;;24.10;61.90;;;;;;4942360;28;19915;-79
2023/06/14 13:48:33;;;;;;;;;;;24.50;61.60;;;;;;4941465;28;19915;-79
2023/06/14 13:51:11;;;;;;;;;;;23.60;62.40;;;;;;4922343;29;19911;-79
2023/06/14 13:53:36;;;;;;;;;;;23.30;62.50;;;;;;4929166;28;19915;-78
2023/06/14 13:56:04;;;;;;;;;;;23.30;63.40;;;;;;4938118;29;20835;-79
2023/06/14 13:58:30;;;;;;;;;;;23.10;63.30;;;;;;4936827;29;19915;-79
2023/06/14 14:01:12;;;;;;;;;;;23.20;64.50;;;;;;4936632;29;19911;-79
2023/06/14 14:03:40;;;;;;;;;;;23.30;63.20;;;;;;4933462;29;19915;-79
2023/06/14 14:06:10;;;;;;;;;;;23.30;63.20;;;;;;4938539;29;19911;-78
2023/06/14 14:08:54;;;;;;;;;;;23.20;63.00;;;;;;4931437;29;19916;-79
2023/06/14 14:11:21;;;;;;;;;;;22.80;63.00;;;;;;4933494;29;19958;-79
2023/06/14 14:13:46;;;;;;;;;;;22.80;63.70;;;;;;4938759;29;19923;-79
2023/06/14 14:16:16;;;;;;;;;;;22.80;64.80;;;;;;4936529;29;19911;-79
2023/06/14 14:18:43;;;;;;;;;;;22.80;63.90;;;;;;4935255;29;20012;-79
2023/06/14 14:21:09;;;;;;;;;;;22.90;64.10;;;;;;4932783;29;19911;-79
2023/06/14 14:23:45;;;;;;;;;;;23.00;63.50;;;;;;4937226;29;19934;-79
2023/06/14 14:26:12;;;;;;;;;;;23.20;63.90;;;;;;4936565;29;20360;-79
2023/06/14 14:28:38;;;;;;;;;;;23.30;63.00;;;;;;4933904;29;19953;-79
2023/06/14 14:31:07;;;;;;;;;;;23.00;63.40;;;;;;4940824;29;19941;-78
2023/06/14 14:33:40;;;;;;;;;;;23.10;64.50;;;;;;4933622;29;19962;-79
2023/06/14 14:36:07;;;;;;;;;;;23.10;64.50;;;;;;4942326;29;19911;-81
2023/06/14 14:38:33;;;;;;;;;;;23.50;63.90;;;;;;4939717;29;19954;-81
2023/06/14 14:41:03;;;;;;;;;;;23.70;63.00;;;;;;4931698;29;19922;-81
2023/06/14 14:43:30;;;;;;;;;;;23.80;63.00;;;;;;4938073;29;19914;-82
2023/06/14 14:46:07;;;;;;;;;;;23.40;63.10;;;;;;4934378;29;19966;-79
2023/06/14 14:48:36;;;;;;;;;;;23.20;63.10;;;;;;4914952;29;19970;-79
2023/06/14 14:51:07;;;;;;;;;;;23.40;63.50;;;;;;4931628;29;19973;-79
2023/06/14 14:53:33;;;;;;;;;;;23.40;63.30;;;;;;4936462;29;19923;-79